sensor_id;sensor_type;location;lat;lon;timestamp;temperature;humidity
33881;DHT22;20172;47.530;10.256;2022-09-29T00:01:25;7.30;99.90
33881;DHT22;20172;47.530;10.256;2022-09-29T00:03:51;7.10;99.90
33881;DHT22;20172;47.530;10.256;2022-09-29T00:06:17;7.10;99.90
33881;DHT22;20172;47.530;10.256;2022-09-29T00:08:43;7.00;99.90
33881;DHT22;20172;47.530;10.256;2022-09-29T00:11:09;7.00;99.90
33881;DHT22;20172;47.530;10.256;2022-09-29T00:13:35;7.10;99.90
33881;DHT22;20172;47.530;10.256;2022-09-29T00:16:01;7.10;99.90
33881;DHT22;20172;47.530;10.256;2022-09-29T00:18:27;7.20;99.90
33881;DHT22;20172;47.530;10.256;2022-09-29T00:21:01;7.30;99.90
33881;DHT22;20172;47.530;10.256;2022-09-29T00:23:29;7.40;99.90
33881;DHT22;20172;47.530;10.256;2022-09-29T00:25:59;7.60;99.90
33881;DHT22;20172;47.530;10.256;2022-09-29T00:28:24;7.80;99.90
33881;DHT22;20172;47.530;10.256;2022-09-29T00:30:50;7.90;99.90
33881;DHT22;20172;47.530;10.256;2022-09-29T00:33:15;8.00;99.90
33881;DHT22;20172;47.530;10.256;2022-09-29T00:35:41;7.90;99.90
33881;DHT22;20172;47.530;10.256;2022-09-29T00:38:06;7.90;99.90
33881;DHT22;20172;47.530;10.256;2022-09-29T00:40:32;7.70;99.90
33881;DHT22;20172;47.530;10.256;2022-09-29T00:42:59;7.70;99.90
33881;DHT22;20172;47.530;10.256;2022-09-29T00:45:25;7.60;99.90
33881;DHT22;20172;47.530;10.256;2022-09-29T00:48:01;7.40;99.90
33881;DHT22;20172;47.530;10.256;2022-09-29T00:50:29;7.30;99.90
33881;DHT22;20172;47.530;10.256;2022-09-29T00:52:57;7.10;99.90
33881;DHT22;20172;47.530;10.256;2022-09-29T00:55:27;7.10;99.90
33881;DHT22;20172;47.530;10.256;2022-09-29T00:57:56;7.10;99.90
33881;DHT22;20172;47.530;10.256;2022-09-29T01:00:24;7.30;99.90
33881;DHT22;20172;47.530;10.256;2022-09-29T01:05:46;7.50;99.90
33881;DHT22;20172;47.530;10.256;2022-09-29T01:08:19;7.40;99.90
33881;DHT22;20172;47.530;10.256;2022-09-29T01:10:47;7.40;99.90
33881;DHT22;20172;47.530;10.256;2022-09-29T01:13:15;7.60;99.90
33881;DHT22;20172;47.530;10.256;2022-09-29T01:15:40;7.70;99.90
33881;DHT22;20172;47.530;10.256;2022-09-29T01:18:06;7.80;99.90
33881;DHT22;20172;47.530;10.256;2022-09-29T01:20:32;7.80;99.90
33881;DHT22;20172;47.530;10.256;2022-09-29T01:23:22;7.80;99.90
33881;DHT22;20172;47.530;10.256;2022-09-29T01:30:54;7.70;99.90
33881;DHT22;20172;47.530;10.256;2022-09-29T01:33:36;7.60;99.90
33881;DHT22;20172;47.530;10.256;2022-09-29T01:38:53;7.60;99.90
33881;DHT22;20172;47.530;10.256;2022-09-29T01:41:32;7.70;99.90
33881;DHT22;20172;47.530;10.256;2022-09-29T01:46:56;7.90;99.90
33881;DHT22;20172;47.530;10.256;2022-09-29T01:49:23;8.10;99.90
33881;DHT22;20172;47.530;10.256;2022-09-29T01:51:59;8.00;99.90
33881;DHT22;20172;47.530;10.256;2022-09-29T01:54:27;7.90;99.90
33881;DHT22;20172;47.530;10.256;2022-09-29T01:57:03;7.90;99.90
33881;DHT22;20172;47.530;10.256;2022-09-29T01:59:37;8.00;99.90
33881;DHT22;20172;47.530;10.256;2022-09-29T02:02:07;8.00;99.90
33881;DHT22;20172;47.530;10.256;2022-09-29T02:04:40;8.00;99.90
33881;DHT22;20172;47.530;10.256;2022-09-29T02:07:12;7.90;99.90
33881;DHT22;20172;47.530;10.256;2022-09-29T02:09:41;7.80;99.90
33881;DHT22;20172;47.530;10.256;2022-09-29T02:12:09;7.70;99.90
33881;DHT22;20172;47.530;10.256;2022-09-29T02:14:38;7.70;99.90
33881;DHT22;20172;47.530;10.256;2022-09-29T02:17:07;7.60;99.90
33881;DHT22;20172;47.530;10.256;2022-09-29T02:19:36;7.50;99.90
33881;DHT22;20172;47.530;10.256;2022-09-29T02:22:02;7.60;99.90
33881;DHT22;20172;47.530;10.256;2022-09-29T02:24:28;7.80;99.90
33881;DHT22;20172;47.530;10.256;2022-09-29T02:26:53;7.90;99.90
33881;DHT22;20172;47.530;10.256;2022-09-29T02:29:20;8.00;99.90
33881;DHT22;20172;47.530;10.256;2022-09-29T02:31:46;8.20;99.90
33881;DHT22;20172;47.530;10.256;2022-09-29T02:34:12;8.10;99.90
33881;DHT22;20172;47.530;10.256;2022-09-29T02:36:41;7.90;99.90
33881;DHT22;20172;47.530;10.256;2022-09-29T02:39:10;7.80;99.90
33881;DHT22;20172;47.530;10.256;2022-09-29T02:47:17;7.80;99.90
33881;DHT22;20172;47.530;10.256;2022-09-29T02:52:24;7.90;99.90
33881;DHT22;20172;47.530;10.256;2022-09-29T03:00:06;7.60;99.90
33881;DHT22;20172;47.530;10.256;2022-09-29T03:02:34;7.60;99.90
33881;DHT22;20172;47.530;10.256;2022-09-29T03:05:00;7.70;99.90
33881;DHT22;20172;47.530;10.256;2022-09-29T03:07:26;7.80;99.90
33881;DHT22;20172;47.530;10.256;2022-09-29T03:09:51;7.60;99.90
33881;DHT22;20172;47.530;10.256;2022-09-29T03:12:19;7.50;99.90
33881;DHT22;20172;47.530;10.256;2022-09-29T03:14:44;7.60;99.90
33881;DHT22;20172;47.530;10.256;2022-09-29T03:17:10;7.70;99.90
33881;DHT22;20172;47.530;10.256;2022-09-29T03:19:36;7.80;99.90
33881;DHT22;20172;47.530;10.256;2022-09-29T03:22:01;7.90;99.90
33881;DHT22;20172;47.530;10.256;2022-09-29T03:24:28;8.00;99.90
33881;DHT22;20172;47.530;10.256;2022-09-29T03:26:53;7.80;99.90
33881;DHT22;20172;47.530;10.256;2022-09-29T03:29:19;7.60;99.90
33881;DHT22;20172;47.530;10.256;2022-09-29T03:31:44;7.70;99.90
33881;DHT22;20172;47.530;10.256;2022-09-29T03:34:10;7.70;99.90
33881;DHT22;20172;47.530;10.256;2022-09-29T03:36:35;7.80;99.90
33881;DHT22;20172;47.530;10.256;2022-09-29T03:39:01;7.80;99.90
33881;DHT22;20172;47.530;10.256;2022-09-29T03:41:27;7.80;99.90
33881;DHT22;20172;47.530;10.256;2022-09-29T03:43:52;7.80;99.90
33881;DHT22;20172;47.530;10.256;2022-09-29T03:46:18;7.70;99.90
33881;DHT22;20172;47.530;10.256;2022-09-29T03:48:43;7.80;99.90
33881;DHT22;20172;47.530;10.256;2022-09-29T03:51:09;7.80;99.90
33881;DHT22;20172;47.530;10.256;2022-09-29T03:53:35;7.80;99.90
33881;DHT22;20172;47.530;10.256;2022-09-29T03:56:01;7.80;99.90
33881;DHT22;20172;47.530;10.256;2022-09-29T03:58:27;7.90;99.90
33881;DHT22;20172;47.530;10.256;2022-09-29T04:00:52;8.10;99.90
33881;DHT22;20172;47.530;10.256;2022-09-29T04:03:18;8.10;99.90
33881;DHT22;20172;47.530;10.256;2022-09-29T04:05:44;7.90;99.90
33881;DHT22;20172;47.530;10.256;2022-09-29T04:08:10;7.80;99.90
33881;DHT22;20172;47.530;10.256;2022-09-29T04:10:36;7.80;99.90
33881;DHT22;20172;47.530;10.256;2022-09-29T04:13:01;7.60;99.90
33881;DHT22;20172;47.530;10.256;2022-09-29T04:15:27;7.60;99.90
33881;DHT22;20172;47.530;10.256;2022-09-29T04:17:53;7.70;99.90
33881;DHT22;20172;47.530;10.256;2022-09-29T04:20:18;7.90;99.90
33881;DHT22;20172;47.530;10.256;2022-09-29T04:22:44;7.80;99.90
33881;DHT22;20172;47.530;10.256;2022-09-29T04:25:09;7.70;99.90
33881;DHT22;20172;47.530;10.256;2022-09-29T04:27:35;7.80;99.90
33881;DHT22;20172;47.530;10.256;2022-09-29T04:30:00;7.80;99.90
33881;DHT22;20172;47.530;10.256;2022-09-29T04:32:26;7.80;99.90
33881;DHT22;20172;47.530;10.256;2022-09-29T04:34:51;8.00;99.90
33881;DHT22;20172;47.530;10.256;2022-09-29T04:37:17;8.00;99.90
33881;DHT22;20172;47.530;10.256;2022-09-29T04:39:42;8.10;99.90
33881;DHT22;20172;47.530;10.256;2022-09-29T04:42:08;8.00;99.90
33881;DHT22;20172;47.530;10.256;2022-09-29T04:44:33;8.00;99.90
33881;DHT22;20172;47.530;10.256;2022-09-29T04:46:59;7.90;99.90
33881;DHT22;20172;47.530;10.256;2022-09-29T04:49:24;7.80;99.90
33881;DHT22;20172;47.530;10.256;2022-09-29T04:51:50;7.70;99.90
33881;DHT22;20172;47.530;10.256;2022-09-29T04:54:15;7.70;99.90
33881;DHT22;20172;47.530;10.256;2022-09-29T04:56:41;7.60;99.90
33881;DHT22;20172;47.530;10.256;2022-09-29T04:59:07;7.60;99.90
33881;DHT22;20172;47.530;10.256;2022-09-29T05:01:33;7.70;99.90
33881;DHT22;20172;47.530;10.256;2022-09-29T05:03:59;7.80;99.90
33881;DHT22;20172;47.530;10.256;2022-09-29T05:06:24;7.80;99.90
33881;DHT22;20172;47.530;10.256;2022-09-29T05:08:50;7.80;99.90
33881;DHT22;20172;47.530;10.256;2022-09-29T05:11:15;7.90;99.90
33881;DHT22;20172;47.530;10.256;2022-09-29T05:13:41;7.90;99.90
33881;DHT22;20172;47.530;10.256;2022-09-29T05:16:06;8.00;99.90
33881;DHT22;20172;47.530;10.256;2022-09-29T05:18:32;8.10;99.90
33881;DHT22;20172;47.530;10.256;2022-09-29T05:21:01;8.10;99.90
33881;DHT22;20172;47.530;10.256;2022-09-29T05:23:27;7.90;99.90
33881;DHT22;20172;47.530;10.256;2022-09-29T05:25:52;8.00;99.90
33881;DHT22;20172;47.530;10.256;2022-09-29T05:28:18;8.00;99.90
33881;DHT22;20172;47.530;10.256;2022-09-29T05:30:43;7.90;99.90
33881;DHT22;20172;47.530;10.256;2022-09-29T05:33:09;7.90;99.90
33881;DHT22;20172;47.530;10.256;2022-09-29T05:35:34;8.00;99.90
33881;DHT22;20172;47.530;10.256;2022-09-29T05:38:00;8.00;99.90
33881;DHT22;20172;47.530;10.256;2022-09-29T05:40:25;8.00;99.90
33881;DHT22;20172;47.530;10.256;2022-09-29T05:42:51;8.20;99.90
33881;DHT22;20172;47.530;10.256;2022-09-29T05:45:17;8.10;99.90
33881;DHT22;20172;47.530;10.256;2022-09-29T05:47:43;8.20;99.90
33881;DHT22;20172;47.530;10.256;2022-09-29T05:50:12;8.10;99.90
33881;DHT22;20172;47.530;10.256;2022-09-29T05:52:38;8.20;99.90
33881;DHT22;20172;47.530;10.256;2022-09-29T05:55:04;8.10;99.90
33881;DHT22;20172;47.530;10.256;2022-09-29T05:57:30;8.30;99.90
33881;DHT22;20172;47.530;10.256;2022-09-29T05:59:56;8.40;99.90
33881;DHT22;20172;47.530;10.256;2022-09-29T06:02:21;8.50;99.90
33881;DHT22;20172;47.530;10.256;2022-09-29T06:04:47;8.60;99.90
33881;DHT22;20172;47.530;10.256;2022-09-29T06:07:13;8.60;99.90
33881;DHT22;20172;47.530;10.256;2022-09-29T06:09:38;8.70;99.90
33881;DHT22;20172;47.530;10.256;2022-09-29T06:12:03;8.70;99.90
33881;DHT22;20172;47.530;10.256;2022-09-29T06:14:29;8.70;99.90
33881;DHT22;20172;47.530;10.256;2022-09-29T06:16:54;8.60;99.90
33881;DHT22;20172;47.530;10.256;2022-09-29T06:19:20;8.50;99.90
33881;DHT22;20172;47.530;10.256;2022-09-29T06:21:45;8.60;99.90
33881;DHT22;20172;47.530;10.256;2022-09-29T06:24:11;8.60;99.90
33881;DHT22;20172;47.530;10.256;2022-09-29T06:26:36;8.70;99.90
33881;DHT22;20172;47.530;10.256;2022-09-29T06:29:02;8.70;99.90
33881;DHT22;20172;47.530;10.256;2022-09-29T06:31:29;8.80;99.90
33881;DHT22;20172;47.530;10.256;2022-09-29T06:33:55;8.80;99.90
33881;DHT22;20172;47.530;10.256;2022-09-29T06:36:34;8.80;99.90
33881;DHT22;20172;47.530;10.256;2022-09-29T06:39:18;8.90;99.90
33881;DHT22;20172;47.530;10.256;2022-09-29T06:41:43;8.90;99.90
33881;DHT22;20172;47.530;10.256;2022-09-29T06:44:16;8.90;99.90
33881;DHT22;20172;47.530;10.256;2022-09-29T06:46:42;9.10;99.90
33881;DHT22;20172;47.530;10.256;2022-09-29T06:49:07;9.10;99.90
33881;DHT22;20172;47.530;10.256;2022-09-29T06:51:34;9.10;99.90
33881;DHT22;20172;47.530;10.256;2022-09-29T06:53:59;9.10;99.90
33881;DHT22;20172;47.530;10.256;2022-09-29T06:56:25;9.00;99.90
33881;DHT22;20172;47.530;10.256;2022-09-29T06:58:50;9.10;99.90
33881;DHT22;20172;47.530;10.256;2022-09-29T07:01:16;9.10;99.90
33881;DHT22;20172;47.530;10.256;2022-09-29T07:03:41;9.10;99.90
33881;DHT22;20172;47.530;10.256;2022-09-29T07:06:08;9.10;99.90
33881;DHT22;20172;47.530;10.256;2022-09-29T07:08:34;9.10;99.90
33881;DHT22;20172;47.530;10.256;2022-09-29T07:11:01;9.20;99.90
33881;DHT22;20172;47.530;10.256;2022-09-29T07:13:27;9.20;99.90
33881;DHT22;20172;47.530;10.256;2022-09-29T07:15:53;9.20;99.90
33881;DHT22;20172;47.530;10.256;2022-09-29T07:18:19;9.20;99.90
33881;DHT22;20172;47.530;10.256;2022-09-29T07:20:44;9.10;99.90
33881;DHT22;20172;47.530;10.256;2022-09-29T07:23:10;9.10;99.90
33881;DHT22;20172;47.530;10.256;2022-09-29T07:25:36;9.20;99.90
33881;DHT22;20172;47.530;10.256;2022-09-29T07:28:01;9.20;99.90
33881;DHT22;20172;47.530;10.256;2022-09-29T07:30:27;9.10;99.90
33881;DHT22;20172;47.530;10.256;2022-09-29T07:32:53;9.10;99.90
33881;DHT22;20172;47.530;10.256;2022-09-29T07:35:20;9.10;99.90
33881;DHT22;20172;47.530;10.256;2022-09-29T07:37:52;9.10;99.90
33881;DHT22;20172;47.530;10.256;2022-09-29T07:40:18;9.20;99.90
33881;DHT22;20172;47.530;10.256;2022-09-29T07:42:43;9.20;99.90
33881;DHT22;20172;47.530;10.256;2022-09-29T07:45:09;9.30;99.90
33881;DHT22;20172;47.530;10.256;2022-09-29T07:47:34;9.30;99.90
33881;DHT22;20172;47.530;10.256;2022-09-29T07:50:00;9.30;99.90
33881;DHT22;20172;47.530;10.256;2022-09-29T07:52:26;9.40;99.90
33881;DHT22;20172;47.530;10.256;2022-09-29T07:54:51;9.50;99.90
33881;DHT22;20172;47.530;10.256;2022-09-29T07:57:16;9.40;99.90
33881;DHT22;20172;47.530;10.256;2022-09-29T07:59:42;9.40;99.90
33881;DHT22;20172;47.530;10.256;2022-09-29T08:02:08;9.40;99.90
33881;DHT22;20172;47.530;10.256;2022-09-29T08:04:33;9.50;99.90
33881;DHT22;20172;47.530;10.256;2022-09-29T08:06:59;9.50;99.90
33881;DHT22;20172;47.530;10.256;2022-09-29T08:09:24;9.60;99.90
33881;DHT22;20172;47.530;10.256;2022-09-29T08:11:50;9.70;99.90
33881;DHT22;20172;47.530;10.256;2022-09-29T08:14:16;9.80;99.90
33881;DHT22;20172;47.530;10.256;2022-09-29T08:16:41;10.00;99.90
33881;DHT22;20172;47.530;10.256;2022-09-29T08:19:07;10.00;99.90
33881;DHT22;20172;47.530;10.256;2022-09-29T08:21:32;10.10;99.90
33881;DHT22;20172;47.530;10.256;2022-09-29T08:24:01;10.10;99.90
33881;DHT22;20172;47.530;10.256;2022-09-29T08:26:29;10.00;99.90
33881;DHT22;20172;47.530;10.256;2022-09-29T08:28:55;10.00;99.90
33881;DHT22;20172;47.530;10.256;2022-09-29T08:31:21;10.00;99.90
33881;DHT22;20172;47.530;10.256;2022-09-29T08:33:47;10.10;99.90
33881;DHT22;20172;47.530;10.256;2022-09-29T08:36:19;10.10;99.90
33881;DHT22;20172;47.530;10.256;2022-09-29T08:38:49;10.10;99.90
33881;DHT22;20172;47.530;10.256;2022-09-29T08:41:30;10.20;99.90
33881;DHT22;20172;47.530;10.256;2022-09-29T08:49:26;10.40;99.90
33881;DHT22;20172;47.530;10.256;2022-09-29T08:51:54;10.40;99.90
33881;DHT22;20172;47.530;10.256;2022-09-29T08:56:46;10.20;99.90
33881;DHT22;20172;47.530;10.256;2022-09-29T08:59:12;10.20;99.90
33881;DHT22;20172;47.530;10.256;2022-09-29T09:12:10;10.40;99.90
33881;DHT22;20172;47.530;10.256;2022-09-29T09:19:54;10.30;99.90
33881;DHT22;20172;47.530;10.256;2022-09-29T09:24:48;10.50;99.90
33881;DHT22;20172;47.530;10.256;2022-09-29T09:27:15;10.70;99.90
33881;DHT22;20172;47.530;10.256;2022-09-29T09:29:44;10.80;99.90
33881;DHT22;20172;47.530;10.256;2022-09-29T09:32:16;10.90;99.90
33881;DHT22;20172;47.530;10.256;2022-09-29T09:34:56;11.00;99.90
33881;DHT22;20172;47.530;10.256;2022-09-29T09:37:25;11.20;99.90
33881;DHT22;20172;47.530;10.256;2022-09-29T09:40:02;11.30;99.90
33881;DHT22;20172;47.530;10.256;2022-09-29T09:42:30;11.40;99.90
33881;DHT22;20172;47.530;10.256;2022-09-29T09:45:02;11.50;99.90
33881;DHT22;20172;47.530;10.256;2022-09-29T09:50:24;11.20;99.90
33881;DHT22;20172;47.530;10.256;2022-09-29T09:52:55;11.20;99.90
33881;DHT22;20172;47.530;10.256;2022-09-29T09:55:24;11.00;99.90
33881;DHT22;20172;47.530;10.256;2022-09-29T10:02:56;11.00;99.90
33881;DHT22;20172;47.530;10.256;2022-09-29T10:05:25;11.00;99.90
33881;DHT22;20172;47.530;10.256;2022-09-29T10:07:54;11.00;99.90
33881;DHT22;20172;47.530;10.256;2022-09-29T10:10:21;11.20;99.90
33881;DHT22;20172;47.530;10.256;2022-09-29T10:12:53;11.30;99.90
33881;DHT22;20172;47.530;10.256;2022-09-29T10:15:21;11.30;99.90
33881;DHT22;20172;47.530;10.256;2022-09-29T10:17:49;11.30;99.90
33881;DHT22;20172;47.530;10.256;2022-09-29T10:20:28;11.40;99.90
33881;DHT22;20172;47.530;10.256;2022-09-29T10:22:53;11.50;99.90
33881;DHT22;20172;47.530;10.256;2022-09-29T10:25:23;11.70;99.90
33881;DHT22;20172;47.530;10.256;2022-09-29T10:27:50;11.80;99.90
33881;DHT22;20172;47.530;10.256;2022-09-29T10:32:46;11.80;99.90
33881;DHT22;20172;47.530;10.256;2022-09-29T10:35:16;12.00;99.90
33881;DHT22;20172;47.530;10.256;2022-09-29T10:37:58;12.20;99.90
33881;DHT22;20172;47.530;10.256;2022-09-29T10:40:24;12.40;99.90
33881;DHT22;20172;47.530;10.256;2022-09-29T10:42:50;12.50;99.90
33881;DHT22;20172;47.530;10.256;2022-09-29T10:45:16;12.70;99.90
33881;DHT22;20172;47.530;10.256;2022-09-29T10:50:18;12.90;99.90
33881;DHT22;20172;47.530;10.256;2022-09-29T10:52:54;12.80;99.90
33881;DHT22;20172;47.530;10.256;2022-09-29T10:55:31;12.70;99.90
33881;DHT22;20172;47.530;10.256;2022-09-29T10:57:58;12.60;99.90
33881;DHT22;20172;47.530;10.256;2022-09-29T11:00:26;12.60;99.90
33881;DHT22;20172;47.530;10.256;2022-09-29T11:03:00;12.60;99.90
33881;DHT22;20172;47.530;10.256;2022-09-29T11:05:28;12.50;99.90
33881;DHT22;20172;47.530;10.256;2022-09-29T11:07:57;12.40;99.90
33881;DHT22;20172;47.530;10.256;2022-09-29T11:10:26;12.40;99.90
33881;DHT22;20172;47.530;10.256;2022-09-29T11:12:51;12.30;99.90
33881;DHT22;20172;47.530;10.256;2022-09-29T11:15:37;12.30;99.90
33881;DHT22;20172;47.530;10.256;2022-09-29T11:18:04;12.30;99.90
33881;DHT22;20172;47.530;10.256;2022-09-29T11:20:41;12.20;99.90
33881;DHT22;20172;47.530;10.256;2022-09-29T11:23:16;12.30;99.90
33881;DHT22;20172;47.530;10.256;2022-09-29T11:28:28;12.50;99.90
33881;DHT22;20172;47.530;10.256;2022-09-29T11:33:40;12.40;99.90
33881;DHT22;20172;47.530;10.256;2022-09-29T11:41:53;12.10;99.90
33881;DHT22;20172;47.530;10.256;2022-09-29T11:49:46;12.00;99.90
33881;DHT22;20172;47.530;10.256;2022-09-29T11:54:45;12.00;99.90
33881;DHT22;20172;47.530;10.256;2022-09-29T11:57:13;12.00;99.90
33881;DHT22;20172;47.530;10.256;2022-09-29T11:59:59;12.00;99.90
33881;DHT22;20172;47.530;10.256;2022-09-29T12:07:51;11.90;99.90
33881;DHT22;20172;47.530;10.256;2022-09-29T12:10:26;11.90;99.90
33881;DHT22;20172;47.530;10.256;2022-09-29T12:12:58;11.90;99.90
33881;DHT22;20172;47.530;10.256;2022-09-29T12:17:58;11.80;99.90
33881;DHT22;20172;47.530;10.256;2022-09-29T12:20:26;11.90;99.90
33881;DHT22;20172;47.530;10.256;2022-09-29T12:22:53;12.00;99.90
33881;DHT22;20172;47.530;10.256;2022-09-29T12:25:22;11.90;99.90
33881;DHT22;20172;47.530;10.256;2022-09-29T12:27:49;11.90;99.90
33881;DHT22;20172;47.530;10.256;2022-09-29T12:32:53;11.80;99.90
33881;DHT22;20172;47.530;10.256;2022-09-29T12:40:48;11.80;99.90
33881;DHT22;20172;47.530;10.256;2022-09-29T12:45:59;12.00;99.90
33881;DHT22;20172;47.530;10.256;2022-09-29T12:51:13;12.10;99.90
33881;DHT22;20172;47.530;10.256;2022-09-29T12:56:29;12.10;99.90
33881;DHT22;20172;47.530;10.256;2022-09-29T12:59:18;12.10;99.90
33881;DHT22;20172;47.530;10.256;2022-09-29T13:01:44;12.10;99.90
33881;DHT22;20172;47.530;10.256;2022-09-29T13:16:55;12.00;99.90
33881;DHT22;20172;47.530;10.256;2022-09-29T13:27:31;11.60;99.90
33881;DHT22;20172;47.530;10.256;2022-09-29T13:32:39;11.70;99.90
33881;DHT22;20172;47.530;10.256;2022-09-29T13:35:10;11.70;99.90
33881;DHT22;20172;47.530;10.256;2022-09-29T13:37:56;11.70;99.90
33881;DHT22;20172;47.530;10.256;2022-09-29T13:40:27;11.70;99.90
33881;DHT22;20172;47.530;10.256;2022-09-29T13:42:57;11.70;99.90
33881;DHT22;20172;47.530;10.256;2022-09-29T13:47:50;11.70;99.90
33881;DHT22;20172;47.530;10.256;2022-09-29T14:01:11;11.50;99.90
33881;DHT22;20172;47.530;10.256;2022-09-29T14:03:44;11.70;99.90
33881;DHT22;20172;47.530;10.256;2022-09-29T14:06:30;11.60;99.90
33881;DHT22;20172;47.530;10.256;2022-09-29T14:09:03;11.60;99.90
33881;DHT22;20172;47.530;10.256;2022-09-29T14:11:50;11.60;99.90
33881;DHT22;20172;47.530;10.256;2022-09-29T14:14:23;11.70;99.90
33881;DHT22;20172;47.530;10.256;2022-09-29T14:17:32;11.80;99.90
33881;DHT22;20172;47.530;10.256;2022-09-29T14:24:53;12.00;99.90
33881;DHT22;20172;47.530;10.256;2022-09-29T14:27:32;12.20;99.90
33881;DHT22;20172;47.530;10.256;2022-09-29T14:32:37;12.30;99.90
33881;DHT22;20172;47.530;10.256;2022-09-29T14:35:13;12.20;99.90
33881;DHT22;20172;47.530;10.256;2022-09-29T14:37:39;12.30;99.90
33881;DHT22;20172;47.530;10.256;2022-09-29T14:40:06;12.30;99.90
33881;DHT22;20172;47.530;10.256;2022-09-29T14:45:29;12.20;99.90
33881;DHT22;20172;47.530;10.256;2022-09-29T14:48:24;12.00;99.90
33881;DHT22;20172;47.530;10.256;2022-09-29T14:51:13;12.00;99.90
33881;DHT22;20172;47.530;10.256;2022-09-29T14:54:06;11.90;99.90
33881;DHT22;20172;47.530;10.256;2022-09-29T14:56:48;11.60;99.90
33881;DHT22;20172;47.530;10.256;2022-09-29T15:04:49;11.50;99.90
33881;DHT22;20172;47.530;10.256;2022-09-29T15:07:17;11.50;99.90
33881;DHT22;20172;47.530;10.256;2022-09-29T15:09:50;11.60;99.90
33881;DHT22;20172;47.530;10.256;2022-09-29T15:12:18;11.50;99.90
33881;DHT22;20172;47.530;10.256;2022-09-29T15:14:46;11.50;99.90
33881;DHT22;20172;47.530;10.256;2022-09-29T15:19:50;11.40;99.90
33881;DHT22;20172;47.530;10.256;2022-09-29T15:24:49;11.40;99.90
33881;DHT22;20172;47.530;10.256;2022-09-29T15:27:17;11.50;99.90
33881;DHT22;20172;47.530;10.256;2022-09-29T15:29:45;11.60;99.90
33881;DHT22;20172;47.530;10.256;2022-09-29T15:32:18;11.60;99.90
33881;DHT22;20172;47.530;10.256;2022-09-29T15:34:46;11.50;99.90
33881;DHT22;20172;47.530;10.256;2022-09-29T15:37:19;11.30;99.90
33881;DHT22;20172;47.530;10.256;2022-09-29T15:39:48;11.20;99.90
33881;DHT22;20172;47.530;10.256;2022-09-29T15:42:21;11.20;99.90
33881;DHT22;20172;47.530;10.256;2022-09-29T15:44:52;11.20;99.90
33881;DHT22;20172;47.530;10.256;2022-09-29T15:47:24;11.20;99.90
33881;DHT22;20172;47.530;10.256;2022-09-29T15:49:53;11.10;99.90
33881;DHT22;20172;47.530;10.256;2022-09-29T15:52:19;11.20;99.90
33881;DHT22;20172;47.530;10.256;2022-09-29T15:54:51;11.00;99.90
33881;DHT22;20172;47.530;10.256;2022-09-29T16:05:17;11.10;99.90
33881;DHT22;20172;47.530;10.256;2022-09-29T16:08:03;11.10;99.90
33881;DHT22;20172;47.530;10.256;2022-09-29T16:10:29;11.10;99.90
33881;DHT22;20172;47.530;10.256;2022-09-29T16:13:00;11.10;99.90
33881;DHT22;20172;47.530;10.256;2022-09-29T16:18:03;11.00;99.90
33881;DHT22;20172;47.530;10.256;2022-09-29T16:20:30;11.00;99.90
33881;DHT22;20172;47.530;10.256;2022-09-29T16:23:07;11.10;99.90
33881;DHT22;20172;47.530;10.256;2022-09-29T16:25:33;11.00;99.90
33881;DHT22;20172;47.530;10.256;2022-09-29T16:27:59;10.90;99.90
33881;DHT22;20172;47.530;10.256;2022-09-29T16:30:29;10.90;99.90
33881;DHT22;20172;47.530;10.256;2022-09-29T16:33:19;10.80;99.90
33881;DHT22;20172;47.530;10.256;2022-09-29T16:40:38;10.80;99.90
33881;DHT22;20172;47.530;10.256;2022-09-29T16:43:04;10.60;99.90
33881;DHT22;20172;47.530;10.256;2022-09-29T16:45:30;10.60;99.90
33881;DHT22;20172;47.530;10.256;2022-09-29T16:47:56;10.50;99.90
33881;DHT22;20172;47.530;10.256;2022-09-29T16:50:21;10.50;99.90
33881;DHT22;20172;47.530;10.256;2022-09-29T16:52:48;10.50;99.90
33881;DHT22;20172;47.530;10.256;2022-09-29T16:55:18;10.50;99.90
33881;DHT22;20172;47.530;10.256;2022-09-29T17:00:23;10.30;99.90
33881;DHT22;20172;47.530;10.256;2022-09-29T17:02:50;10.30;99.90
33881;DHT22;20172;47.530;10.256;2022-09-29T17:05:15;10.30;99.90
33881;DHT22;20172;47.530;10.256;2022-09-29T17:07:44;10.30;99.90
33881;DHT22;20172;47.530;10.256;2022-09-29T17:10:22;10.30;99.90
33881;DHT22;20172;47.530;10.256;2022-09-29T17:12:47;10.20;99.90
33881;DHT22;20172;47.530;10.256;2022-09-29T17:15:13;10.20;99.90
33881;DHT22;20172;47.530;10.256;2022-09-29T17:17:40;10.20;99.90
33881;DHT22;20172;47.530;10.256;2022-09-29T17:20:11;10.10;99.90
33881;DHT22;20172;47.530;10.256;2022-09-29T17:22:37;10.20;99.90
33881;DHT22;20172;47.530;10.256;2022-09-29T17:25:03;10.20;99.90
33881;DHT22;20172;47.530;10.256;2022-09-29T17:27:29;10.20;99.90
33881;DHT22;20172;47.530;10.256;2022-09-29T17:30:14;10.20;99.90
33881;DHT22;20172;47.530;10.256;2022-09-29T17:32:42;10.20;99.90
33881;DHT22;20172;47.530;10.256;2022-09-29T17:35:11;10.20;99.90
33881;DHT22;20172;47.530;10.256;2022-09-29T17:37:39;10.20;99.90
33881;DHT22;20172;47.530;10.256;2022-09-29T17:42:50;10.10;99.90
33881;DHT22;20172;47.530;10.256;2022-09-29T17:45:17;10.10;99.90
33881;DHT22;20172;47.530;10.256;2022-09-29T17:47:43;10.00;99.90
33881;DHT22;20172;47.530;10.256;2022-09-29T17:50:43;10.00;99.90
33881;DHT22;20172;47.530;10.256;2022-09-29T17:53:01;9.90;99.90
33881;DHT22;20172;47.530;10.256;2022-09-29T17:55:29;9.90;99.90
33881;DHT22;20172;47.530;10.256;2022-09-29T17:57:54;9.80;99.90
33881;DHT22;20172;47.530;10.256;2022-09-29T18:00:32;9.70;99.90
33881;DHT22;20172;47.530;10.256;2022-09-29T18:03:00;9.80;99.90
33881;DHT22;20172;47.530;10.256;2022-09-29T18:05:26;9.80;99.90
33881;DHT22;20172;47.530;10.256;2022-09-29T18:07:53;9.80;99.90
33881;DHT22;20172;47.530;10.256;2022-09-29T18:12:47;9.80;99.90
33881;DHT22;20172;47.530;10.256;2022-09-29T18:15:13;9.80;99.90
33881;DHT22;20172;47.530;10.256;2022-09-29T18:17:40;9.90;99.90
33881;DHT22;20172;47.530;10.256;2022-09-29T18:20:13;9.90;99.90
33881;DHT22;20172;47.530;10.256;2022-09-29T18:22:40;9.90;99.90
33881;DHT22;20172;47.530;10.256;2022-09-29T18:25:08;10.00;99.90
33881;DHT22;20172;47.530;10.256;2022-09-29T18:27:34;10.00;99.90
33881;DHT22;20172;47.530;10.256;2022-09-29T18:30:22;9.90;99.90
33881;DHT22;20172;47.530;10.256;2022-09-29T18:32:50;9.90;99.90
33881;DHT22;20172;47.530;10.256;2022-09-29T18:35:19;9.90;99.90
33881;DHT22;20172;47.530;10.256;2022-09-29T18:37:45;10.00;99.90
33881;DHT22;20172;47.530;10.256;2022-09-29T18:40:11;9.90;99.90
33881;DHT22;20172;47.530;10.256;2022-09-29T18:42:40;9.80;99.90
33881;DHT22;20172;47.530;10.256;2022-09-29T18:45:08;9.50;99.90